createdAt,value
2018-10-07T00:00:13.684Z,984.48
2018-10-07T00:01:13.678Z,984.47
2018-10-07T00:02:13.677Z,984.42
2018-10-07T00:03:13.675Z,984.45
2018-10-07T00:04:13.676Z,984.43
2018-10-07T00:05:13.680Z,984.38
2018-10-07T00:06:13.677Z,984.42
2018-10-07T00:07:13.672Z,984.48
2018-10-07T00:08:13.670Z,984.44
2018-10-07T00:09:13.672Z,984.45
2018-10-07T00:10:13.670Z,984.5
2018-10-07T00:11:13.675Z,984.4
2018-10-07T00:12:13.670Z,984.49
2018-10-07T00:13:13.668Z,984.48
2018-10-07T00:14:13.669Z,984.5
2018-10-07T00:15:13.680Z,984.45
2018-10-07T00:16:13.663Z,984.5
2018-10-07T00:17:13.670Z,984.45
2018-10-07T00:18:13.663Z,984.49
2018-10-07T00:19:13.661Z,984.46
2018-10-07T00:20:13.666Z,984.5
2018-10-07T00:21:13.660Z,984.51
2018-10-07T00:22:13.659Z,984.49
2018-10-07T00:23:13.658Z,984.54
2018-10-07T00:24:13.661Z,984.51
2018-10-07T00:25:13.659Z,984.55
2018-10-07T00:26:13.658Z,984.56
2018-10-07T00:27:13.652Z,984.54
2018-10-07T00:28:13.654Z,984.56
2018-10-07T00:29:13.654Z,984.56
2018-10-07T00:30:13.652Z,984.62
2018-10-07T00:31:13.653Z,984.61
2018-10-07T00:32:13.648Z,984.67
2018-10-07T00:33:13.649Z,984.62
2018-10-07T00:34:13.656Z,984.64
2018-10-07T00:35:13.648Z,984.66
2018-10-07T00:36:13.650Z,984.73
2018-10-07T00:37:13.645Z,984.69
2018-10-07T00:38:13.672Z,984.73
2018-10-07T00:39:13.657Z,984.69
2018-10-07T00:40:13.644Z,984.75
2018-10-07T00:41:13.657Z,984.74
2018-10-07T00:42:14.446Z,984.74
2018-10-07T00:43:13.654Z,984.73
2018-10-07T00:44:13.643Z,984.76
2018-10-07T00:45:13.644Z,984.77
2018-10-07T00:46:13.643Z,984.78
2018-10-07T00:47:13.639Z,984.79
2018-10-07T00:48:13.639Z,984.79
2018-10-07T00:49:13.643Z,984.82
2018-10-07T00:50:13.647Z,984.79
2018-10-07T00:51:13.641Z,984.79
2018-10-07T00:52:13.652Z,984.78
2018-10-07T00:53:13.641Z,984.79
2018-10-07T00:54:13.631Z,984.8
2018-10-07T00:55:13.634Z,984.82
2018-10-07T00:56:13.632Z,984.83
2018-10-07T00:57:13.633Z,984.79
2018-10-07T00:58:13.632Z,984.79
2018-10-07T00:59:13.645Z,984.76
2018-10-07T01:00:13.633Z,984.81
2018-10-07T01:01:13.629Z,984.73
2018-10-07T01:02:13.633Z,984.76
2018-10-07T01:03:13.626Z,984.74
2018-10-07T01:04:13.635Z,984.73
2018-10-07T01:05:13.627Z,984.74
2018-10-07T01:06:13.623Z,984.72
2018-10-07T01:07:13.630Z,984.71
2018-10-07T01:08:13.620Z,984.75
2018-10-07T01:09:13.619Z,984.75
2018-10-07T01:10:13.623Z,984.76
2018-10-07T01:11:13.618Z,984.7
2018-10-07T01:12:13.618Z,984.7
2018-10-07T01:13:13.617Z,984.69
2018-10-07T01:14:13.648Z,984.7
2018-10-07T01:15:13.616Z,984.69
2018-10-07T01:16:13.619Z,984.7
2018-10-07T01:17:13.614Z,984.72
2018-10-07T01:18:13.621Z,984.69
2018-10-07T01:19:13.614Z,984.71
2018-10-07T01:20:13.635Z,984.71
2018-10-07T01:21:13.614Z,984.74
2018-10-07T01:22:13.614Z,984.73
2018-10-07T01:23:13.613Z,984.73
2018-10-07T01:24:13.605Z,984.72
2018-10-07T01:25:13.615Z,984.7
2018-10-07T01:26:13.607Z,984.69
2018-10-07T01:27:13.609Z,984.69
2018-10-07T01:28:13.605Z,984.74
2018-10-07T01:29:13.603Z,984.7
2018-10-07T01:30:13.618Z,984.73
2018-10-07T01:31:13.602Z,984.76
2018-10-07T01:32:13.599Z,984.7
2018-10-07T01:33:13.603Z,984.72
2018-10-07T01:34:13.621Z,984.72
2018-10-07T01:35:13.601Z,984.73
2018-10-07T01:36:13.607Z,984.77
2018-10-07T01:37:13.600Z,984.75
2018-10-07T01:38:13.601Z,984.81
2018-10-07T01:39:13.597Z,984.76
2018-10-07T01:40:13.593Z,984.74
2018-10-07T01:41:13.590Z,984.71
2018-10-07T01:42:13.590Z,984.75
2018-10-07T01:43:13.586Z,984.73
2018-10-07T01:44:13.586Z,984.69
2018-10-07T01:45:13.598Z,984.72
2018-10-07T01:46:13.582Z,984.76
2018-10-07T01:47:13.583Z,984.75
2018-10-07T01:48:13.596Z,984.77
2018-10-07T01:49:13.581Z,984.76
2018-10-07T01:50:13.582Z,984.77
2018-10-07T01:51:13.577Z,984.78
2018-10-07T01:52:13.579Z,984.78
2018-10-07T01:53:13.590Z,984.77
2018-10-07T01:54:13.575Z,984.81
2018-10-07T01:55:13.577Z,984.84
2018-10-07T01:56:13.573Z,984.84
2018-10-07T01:57:13.584Z,984.84
2018-10-07T01:58:13.574Z,984.82
2018-10-07T01:59:13.586Z,984.8
2018-10-07T02:00:13.576Z,984.86
2018-10-07T02:01:13.572Z,984.81
2018-10-07T02:02:13.569Z,984.84
2018-10-07T02:03:13.574Z,984.84
2018-10-07T02:04:13.570Z,984.84
2018-10-07T02:05:13.670Z,984.84
2018-10-07T02:06:13.564Z,984.83
2018-10-07T02:07:13.570Z,984.85
2018-10-07T02:08:13.560Z,984.84
2018-10-07T02:09:13.562Z,984.83
2018-10-07T02:10:13.560Z,984.85
2018-10-07T02:11:13.556Z,984.86
2018-10-07T02:12:13.553Z,984.87
2018-10-07T02:13:13.559Z,984.88
2018-10-07T02:14:13.555Z,984.84
2018-10-07T02:15:13.558Z,984.87
2018-10-07T02:16:13.550Z,984.88
2018-10-07T02:17:13.582Z,984.88
2018-10-07T02:18:13.547Z,984.87
2018-10-07T02:19:13.545Z,984.87
2018-10-07T02:20:13.545Z,984.87
2018-10-07T02:21:13.547Z,984.9
2018-10-07T02:22:13.543Z,984.91
2018-10-07T02:23:13.540Z,984.87
2018-10-07T02:24:13.539Z,984.9
2018-10-07T02:25:13.551Z,984.93
2018-10-07T02:26:13.557Z,984.9
2018-10-07T02:27:13.534Z,984.9
2018-10-07T02:28:13.540Z,984.94
2018-10-07T02:29:13.538Z,984.95
2018-10-07T02:30:13.537Z,984.96
2018-10-07T02:31:13.535Z,984.97
2018-10-07T02:32:13.528Z,984.98
2018-10-07T02:33:13.539Z,984.96
2018-10-07T02:34:13.546Z,984.99
2018-10-07T02:35:13.540Z,984.98
2018-10-07T02:36:13.529Z,985
2018-10-07T02:37:13.526Z,984.96
2018-10-07T02:38:13.567Z,985.04
2018-10-07T02:39:13.527Z,985.05
2018-10-07T02:40:13.522Z,985.04
2018-10-07T02:41:13.515Z,985.08
2018-10-07T02:42:13.522Z,985.04
2018-10-07T02:43:13.542Z,985.08
2018-10-07T02:44:13.529Z,985.09
2018-10-07T02:45:13.520Z,985.06
2018-10-07T02:46:13.511Z,985.1
2018-10-07T02:47:13.512Z,985.06
2018-10-07T02:48:13.515Z,985.1
2018-10-07T02:49:13.515Z,985.09
2018-10-07T02:50:13.522Z,985.13
2018-10-07T02:51:13.514Z,985.13
2018-10-07T02:52:13.509Z,985.15
2018-10-07T02:53:13.527Z,985.12
2018-10-07T02:54:13.512Z,985.09
2018-10-07T02:55:13.504Z,985.15
2018-10-07T02:56:13.505Z,985.09
2018-10-07T02:57:13.520Z,985.19
2018-10-07T02:58:13.500Z,985.17
2018-10-07T02:59:13.523Z,985.19
2018-10-07T03:00:13.516Z,985.17
2018-10-07T03:01:13.488Z,985.17
2018-10-07T03:02:13.488Z,985.17
2018-10-07T03:03:13.479Z,985.19
2018-10-07T03:04:13.485Z,985.19
2018-10-07T03:05:13.487Z,985.21
2018-10-07T03:06:13.490Z,985.23
2018-10-07T03:07:13.483Z,985.2
2018-10-07T03:08:13.485Z,985.26
2018-10-07T03:09:13.507Z,985.23
2018-10-07T03:10:13.500Z,985.28
2018-10-07T03:11:13.479Z,985.25
2018-10-07T03:12:13.480Z,985.21
2018-10-07T03:13:13.472Z,985.19
2018-10-07T03:14:13.471Z,985.23
2018-10-07T03:15:13.465Z,985.2
2018-10-07T03:16:13.474Z,985.23
2018-10-07T03:17:13.478Z,985.26
2018-10-07T03:18:13.474Z,985.2
2018-10-07T03:19:13.471Z,985.23
2018-10-07T03:20:13.478Z,985.27
2018-10-07T03:21:13.487Z,985.26
2018-10-07T03:22:13.470Z,985.3
2018-10-07T03:23:13.473Z,985.28
2018-10-07T03:24:13.456Z,985.31
2018-10-07T03:25:13.465Z,985.28
2018-10-07T03:26:13.461Z,985.31
2018-10-07T03:27:13.467Z,985.29
2018-10-07T03:28:13.471Z,985.31
2018-10-07T03:29:13.462Z,985.32
2018-10-07T03:30:13.468Z,985.34
2018-10-07T03:31:13.455Z,985.3
2018-10-07T03:32:13.465Z,985.3
2018-10-07T03:33:13.481Z,985.32
2018-10-07T03:34:13.470Z,985.31
2018-10-07T03:35:13.459Z,985.33
2018-10-07T03:36:13.444Z,985.33
2018-10-07T03:37:13.462Z,985.37
2018-10-07T03:38:13.442Z,985.38
2018-10-07T03:39:13.441Z,985.39
2018-10-07T03:40:13.444Z,985.39
2018-10-07T03:41:13.435Z,985.39
2018-10-07T03:42:13.434Z,985.38
2018-10-07T03:43:13.435Z,985.38
2018-10-07T03:44:13.421Z,985.48
2018-10-07T03:45:13.445Z,985.46
2018-10-07T03:46:13.449Z,985.47
2018-10-07T03:47:13.416Z,985.49
2018-10-07T03:48:13.431Z,985.57
2018-10-07T03:49:13.425Z,985.58
2018-10-07T03:50:13.438Z,985.61
2018-10-07T03:51:13.426Z,985.64
2018-10-07T03:52:13.426Z,985.64
2018-10-07T03:53:13.406Z,985.62
2018-10-07T03:54:13.434Z,985.63
2018-10-07T03:55:13.410Z,985.66
2018-10-07T03:56:13.416Z,985.64
2018-10-07T03:57:13.423Z,985.62
2018-10-07T03:58:13.424Z,985.69
2018-10-07T03:59:13.407Z,985.7
2018-10-07T04:00:13.409Z,985.75
2018-10-07T04:01:13.405Z,985.71
2018-10-07T04:02:13.411Z,985.73
2018-10-07T04:03:13.417Z,985.7
2018-10-07T04:04:13.405Z,985.75
2018-10-07T04:05:13.399Z,985.72
2018-10-07T04:06:13.411Z,985.8
2018-10-07T04:07:13.412Z,985.81
2018-10-07T04:08:13.416Z,985.8
2018-10-07T04:09:13.389Z,985.82
2018-10-07T04:10:13.389Z,985.84
2018-10-07T04:11:13.387Z,985.87
2018-10-07T04:12:13.401Z,985.87
2018-10-07T04:13:13.375Z,985.87
2018-10-07T04:14:13.388Z,985.91
2018-10-07T04:15:13.377Z,985.93
2018-10-07T04:16:13.371Z,985.88
2018-10-07T04:17:13.369Z,985.94
2018-10-07T04:18:13.392Z,985.94
2018-10-07T04:19:13.402Z,985.97
2018-10-07T04:20:13.369Z,985.94
2018-10-07T04:21:13.381Z,985.96
2018-10-07T04:22:13.394Z,985.95
2018-10-07T04:23:13.365Z,986.02
2018-10-07T04:24:13.387Z,986.01
2018-10-07T04:25:13.384Z,986
2018-10-07T04:26:13.365Z,986.05
2018-10-07T04:27:13.360Z,986.02
2018-10-07T04:28:13.363Z,986.01
2018-10-07T04:29:13.370Z,986.04
2018-10-07T04:30:13.358Z,986.02
2018-10-07T04:31:13.349Z,986
2018-10-07T04:32:13.359Z,985.99
2018-10-07T04:33:13.372Z,986.02
2018-10-07T04:34:13.341Z,985.98
2018-10-07T04:35:13.339Z,986.01
2018-10-07T04:36:13.334Z,986
2018-10-07T04:37:13.334Z,986
2018-10-07T04:38:13.335Z,985.97
2018-10-07T04:39:13.331Z,985.99
2018-10-07T04:40:13.338Z,985.98
2018-10-07T04:41:13.326Z,985.96
2018-10-07T04:42:13.326Z,985.95
2018-10-07T04:43:13.336Z,985.95
2018-10-07T04:44:13.341Z,985.92
2018-10-07T04:45:13.335Z,985.94
2018-10-07T04:46:13.347Z,985.96
2018-10-07T04:47:13.336Z,985.97
2018-10-07T04:48:13.314Z,985.97
2018-10-07T04:49:13.303Z,985.95
2018-10-07T04:50:13.308Z,986.03
2018-10-07T04:51:13.315Z,986.01
2018-10-07T04:52:13.314Z,986.03
2018-10-07T04:53:13.310Z,986.02
2018-10-07T04:54:13.297Z,986.02
2018-10-07T04:55:13.292Z,986.05
2018-10-07T04:56:13.330Z,985.99
2018-10-07T04:57:13.295Z,986.03
2018-10-07T04:58:13.299Z,986.02
2018-10-07T04:59:13.284Z,985.99
2018-10-07T05:00:13.372Z,985.99
2018-10-07T05:01:13.288Z,985.97
2018-10-07T05:02:13.270Z,985.99
2018-10-07T05:03:13.277Z,985.99
2018-10-07T05:04:13.274Z,986
2018-10-07T05:05:13.265Z,985.99
2018-10-07T05:06:13.259Z,986.07
2018-10-07T05:07:13.268Z,986.06
2018-10-07T05:08:13.251Z,986.01
2018-10-07T05:09:13.264Z,986.06
2018-10-07T05:10:13.247Z,986.09
2018-10-07T05:11:13.244Z,986.07
2018-10-07T05:12:13.317Z,986.07
2018-10-07T05:13:13.241Z,986.08
2018-10-07T05:14:13.243Z,986.11
2018-10-07T05:15:13.247Z,986.16
2018-10-07T05:16:13.238Z,986.16
2018-10-07T05:17:13.246Z,986.18
2018-10-07T05:18:13.226Z,986.19
2018-10-07T05:19:13.228Z,986.21
2018-10-07T05:20:13.245Z,986.24
2018-10-07T05:21:13.215Z,986.21
2018-10-07T05:22:13.211Z,986.26
2018-10-07T05:23:13.216Z,986.3
2018-10-07T05:24:13.209Z,986.28
2018-10-07T05:25:13.211Z,986.29
2018-10-07T05:26:13.202Z,986.31
2018-10-07T05:27:13.204Z,986.33
2018-10-07T05:28:13.197Z,986.32
2018-10-07T05:29:13.195Z,986.31
2018-10-07T05:30:13.195Z,986.38
2018-10-07T05:31:13.196Z,986.38
2018-10-07T05:32:13.194Z,986.42
2018-10-07T05:33:13.190Z,986.4
2018-10-07T05:34:13.182Z,986.44
2018-10-07T05:35:13.184Z,986.47
2018-10-07T05:36:13.179Z,986.52
2018-10-07T05:37:13.183Z,986.5
2018-10-07T05:38:13.174Z,986.54
2018-10-07T05:39:13.169Z,986.53
2018-10-07T05:40:13.174Z,986.52
2018-10-07T05:41:13.165Z,986.56
2018-10-07T05:42:13.164Z,986.62
2018-10-07T05:43:13.165Z,986.59
2018-10-07T05:44:13.220Z,986.61
2018-10-07T05:45:13.163Z,986.65
2018-10-07T05:46:13.159Z,986.68
2018-10-07T05:47:13.151Z,986.66
2018-10-07T05:48:13.148Z,986.68
2018-10-07T05:49:13.146Z,986.71
2018-10-07T05:50:13.148Z,986.75
2018-10-07T05:51:13.141Z,986.78
2018-10-07T05:52:13.141Z,986.71
2018-10-07T05:53:13.151Z,986.74
2018-10-07T05:54:13.136Z,986.84
2018-10-07T05:55:13.133Z,986.85
2018-10-07T05:56:13.131Z,986.83
2018-10-07T05:57:13.164Z,986.82
2018-10-07T05:58:13.127Z,986.89
2018-10-07T05:59:13.124Z,986.9
2018-10-07T06:00:13.127Z,986.93
2018-10-07T06:01:13.118Z,986.97
2018-10-07T06:02:13.237Z,986.96
2018-10-07T06:03:13.116Z,986.91
2018-10-07T06:04:13.112Z,986.93
2018-10-07T06:05:13.109Z,986.97
2018-10-07T06:06:13.108Z,986.96
2018-10-07T06:07:13.109Z,986.96
2018-10-07T06:08:13.104Z,986.93
2018-10-07T06:09:13.104Z,986.91
2018-10-07T06:10:13.122Z,986.97
2018-10-07T06:11:13.098Z,986.96
2018-10-07T06:12:13.099Z,986.98
2018-10-07T06:13:13.094Z,987.01
2018-10-07T06:14:13.091Z,986.95
2018-10-07T06:15:13.093Z,986.98
2018-10-07T06:16:13.088Z,986.99
2018-10-07T06:17:13.098Z,987.03
2018-10-07T06:18:13.110Z,987.03
2018-10-07T06:19:13.085Z,987.09
2018-10-07T06:20:13.084Z,987.06
2018-10-07T06:21:13.078Z,987.08
2018-10-07T06:22:13.077Z,987.1
2018-10-07T06:23:13.083Z,987.08
2018-10-07T06:24:13.074Z,987.07
2018-10-07T06:25:13.068Z,987.12
2018-10-07T06:26:13.066Z,987.12
2018-10-07T06:27:13.065Z,987.15
2018-10-07T06:28:13.063Z,987.15
2018-10-07T06:29:13.063Z,987.15
2018-10-07T06:30:13.062Z,987.2
2018-10-07T06:31:13.065Z,987.21
2018-10-07T06:32:13.057Z,987.18
2018-10-07T06:33:13.052Z,987.22
2018-10-07T06:34:13.049Z,987.28
2018-10-07T06:35:13.051Z,987.24
2018-10-07T06:36:13.052Z,987.28
2018-10-07T06:37:13.045Z,987.26
2018-10-07T06:38:13.046Z,987.32
2018-10-07T06:39:13.042Z,987.36
2018-10-07T06:40:13.043Z,987.35
2018-10-07T06:41:13.038Z,987.37
2018-10-07T06:42:13.037Z,987.39
2018-10-07T06:43:13.042Z,987.45
2018-10-07T06:44:13.046Z,987.43
2018-10-07T06:45:13.037Z,987.41
2018-10-07T06:46:13.032Z,987.43
2018-10-07T06:47:13.034Z,987.45
2018-10-07T06:48:13.034Z,987.43
2018-10-07T06:49:13.026Z,987.44
2018-10-07T06:50:13.031Z,987.45
2018-10-07T06:51:13.025Z,987.42
2018-10-07T06:52:13.021Z,987.43
2018-10-07T06:53:13.065Z,987.44
2018-10-07T06:54:13.019Z,987.4
2018-10-07T06:55:13.050Z,987.42
2018-10-07T06:56:13.015Z,987.42
2018-10-07T06:57:13.014Z,987.46
2018-10-07T06:58:13.013Z,987.45
2018-10-07T06:59:13.012Z,987.45
2018-10-07T07:00:13.018Z,987.46
2018-10-07T07:01:13.011Z,987.48
2018-10-07T07:02:13.013Z,987.48
2018-10-07T07:03:13.012Z,987.44
2018-10-07T07:04:13.004Z,987.43
2018-10-07T07:05:13.013Z,987.46
2018-10-07T07:06:13.004Z,987.5
2018-10-07T07:07:13.002Z,987.46
2018-10-07T07:08:13.003Z,987.49
2018-10-07T07:09:12.999Z,987.52
2018-10-07T07:10:13.006Z,987.51
2018-10-07T07:11:13.005Z,987.52
2018-10-07T07:12:13.013Z,987.52
2018-10-07T07:13:13.007Z,987.51
2018-10-07T07:14:12.998Z,987.58
2018-10-07T07:15:12.995Z,987.62
2018-10-07T07:16:12.994Z,987.55
2018-10-07T07:17:12.994Z,987.62
2018-10-07T07:18:12.995Z,987.64
2018-10-07T07:19:12.998Z,987.64
2018-10-07T07:20:13.069Z,987.67
2018-10-07T07:21:13.002Z,987.69
2018-10-07T07:22:13.000Z,987.72
2018-10-07T07:23:13.005Z,987.72
2018-10-07T07:24:13.005Z,987.72
2018-10-07T07:25:13.009Z,987.73
2018-10-07T07:26:13.019Z,987.75
2018-10-07T07:27:13.020Z,987.75
2018-10-07T07:28:13.019Z,987.77
2018-10-07T07:29:13.021Z,987.81
2018-10-07T07:30:13.025Z,987.76
2018-10-07T07:31:13.096Z,987.79
2018-10-07T07:32:13.041Z,987.76
2018-10-07T07:33:13.035Z,987.83
2018-10-07T07:34:13.042Z,987.82
2018-10-07T07:35:13.044Z,987.91
2018-10-07T07:36:13.052Z,987.89
2018-10-07T07:37:13.055Z,987.91
2018-10-07T07:38:13.058Z,987.89
2018-10-07T07:39:13.063Z,987.92
2018-10-07T07:40:13.065Z,987.92
2018-10-07T07:41:13.072Z,987.99
2018-10-07T07:42:13.118Z,988
2018-10-07T07:43:13.083Z,988
2018-10-07T07:44:13.088Z,988.03
2018-10-07T07:45:13.103Z,988.05
2018-10-07T07:46:13.103Z,988.04
2018-10-07T07:47:13.101Z,988.04
2018-10-07T07:48:13.110Z,988.04
2018-10-07T07:49:13.155Z,988.06
2018-10-07T07:50:13.116Z,988.06
2018-10-07T07:51:13.125Z,988.09
2018-10-07T07:52:13.129Z,988.07
2018-10-07T07:53:13.131Z,988.1
2018-10-07T07:54:13.151Z,988.11
2018-10-07T07:55:13.146Z,988.15
2018-10-07T07:56:13.147Z,988.22
2018-10-07T07:57:13.153Z,988.22
2018-10-07T07:58:13.164Z,988.2
2018-10-07T07:59:13.173Z,988.24
2018-10-07T08:00:13.175Z,988.27
2018-10-07T08:01:13.178Z,988.31
2018-10-07T08:02:13.180Z,988.32
2018-10-07T08:03:13.183Z,988.29
2018-10-07T08:04:13.188Z,988.34
2018-10-07T08:05:13.200Z,988.36
2018-10-07T08:06:13.200Z,988.39
2018-10-07T08:07:13.207Z,988.42
2018-10-07T08:08:13.209Z,988.42
2018-10-07T08:09:13.213Z,988.43
2018-10-07T08:10:13.217Z,988.44
2018-10-07T08:11:13.224Z,988.47
2018-10-07T08:12:13.225Z,988.46
2018-10-07T08:13:13.231Z,988.45
2018-10-07T08:14:13.255Z,988.53
2018-10-07T08:15:13.235Z,988.48
2018-10-07T08:16:13.240Z,988.48
2018-10-07T08:17:13.298Z,988.45
2018-10-07T08:18:13.246Z,988.44
2018-10-07T08:19:13.248Z,988.43
2018-10-07T08:20:13.249Z,988.4
2018-10-07T08:21:13.251Z,988.41
2018-10-07T08:22:13.258Z,988.37
2018-10-07T08:23:13.261Z,988.39
2018-10-07T08:24:13.259Z,988.39
2018-10-07T08:25:13.264Z,988.39
2018-10-07T08:26:13.266Z,988.41
2018-10-07T08:27:13.267Z,988.46
2018-10-07T08:28:13.279Z,988.37
2018-10-07T08:29:13.273Z,988.38
2018-10-07T08:30:13.273Z,988.41
2018-10-07T08:31:13.274Z,988.43
2018-10-07T08:32:13.274Z,988.42
2018-10-07T08:33:13.288Z,988.44
2018-10-07T08:34:14.082Z,988.48
2018-10-07T08:35:13.325Z,988.47
2018-10-07T08:36:13.280Z,988.49
2018-10-07T08:37:13.291Z,988.47
2018-10-07T08:38:13.285Z,988.48
2018-10-07T08:39:13.289Z,988.49
2018-10-07T08:40:13.292Z,988.5
2018-10-07T08:41:13.307Z,988.51
2018-10-07T08:42:13.292Z,988.56
2018-10-07T08:43:13.294Z,988.59
2018-10-07T08:44:13.295Z,988.6
2018-10-07T08:45:13.299Z,988.59
2018-10-07T08:46:13.301Z,988.59
2018-10-07T08:47:13.303Z,988.59
2018-10-07T08:48:13.306Z,988.59
2018-10-07T08:49:13.304Z,988.61
2018-10-07T08:50:13.321Z,988.54
2018-10-07T08:51:13.307Z,988.53
2018-10-07T08:52:13.319Z,988.55
2018-10-07T08:53:13.319Z,988.55
2018-10-07T08:54:13.318Z,988.53
2018-10-07T08:55:13.321Z,988.51
2018-10-07T08:56:13.370Z,988.55
2018-10-07T08:57:13.336Z,988.55
2018-10-07T08:58:13.329Z,988.56
2018-10-07T08:59:13.324Z,988.51
2018-10-07T09:00:13.324Z,988.51
2018-10-07T09:01:13.364Z,988.56
2018-10-07T09:02:13.531Z,988.53
2018-10-07T09:03:13.345Z,988.53
2018-10-07T09:04:13.348Z,988.5
2018-10-07T09:05:13.344Z,988.49
2018-10-07T09:06:13.355Z,988.52
2018-10-07T09:07:13.342Z,988.54
2018-10-07T09:08:13.349Z,988.56
2018-10-07T09:09:13.358Z,988.57
2018-10-07T09:10:13.347Z,988.6
2018-10-07T09:11:13.351Z,988.63
2018-10-07T09:12:13.355Z,988.64
2018-10-07T09:13:13.345Z,988.68
2018-10-07T09:14:13.349Z,988.69
2018-10-07T09:15:13.368Z,988.73
2018-10-07T09:16:13.360Z,988.72
2018-10-07T09:17:13.352Z,988.75
2018-10-07T09:18:13.380Z,988.83
2018-10-07T09:19:13.355Z,988.82
2018-10-07T09:20:13.376Z,988.86
2018-10-07T09:21:13.380Z,988.84
2018-10-07T09:22:13.376Z,988.88
2018-10-07T09:23:13.384Z,988.85
2018-10-07T09:24:13.379Z,988.85
2018-10-07T09:25:13.369Z,988.85
2018-10-07T09:26:13.366Z,988.88
2018-10-07T09:27:13.458Z,988.89
2018-10-07T09:28:13.393Z,988.88
2018-10-07T09:29:13.389Z,988.92
2018-10-07T09:30:13.385Z,988.92
2018-10-07T09:31:13.385Z,988.94
2018-10-07T09:32:13.390Z,988.89
2018-10-07T09:33:13.389Z,988.94
2018-10-07T09:34:13.401Z,988.92
2018-10-07T09:35:13.388Z,988.93
2018-10-07T09:36:13.417Z,988.93
2018-10-07T09:37:13.404Z,988.93
2018-10-07T09:38:13.416Z,988.94
2018-10-07T09:39:13.442Z,988.95
2018-10-07T09:40:13.408Z,988.97
2018-10-07T09:41:13.424Z,989
2018-10-07T09:42:13.416Z,989.03
2018-10-07T09:43:13.438Z,988.99
2018-10-07T09:44:13.426Z,988.99
2018-10-07T09:45:13.420Z,989.02
2018-10-07T09:46:13.445Z,989.05
2018-10-07T09:47:13.476Z,989.02
2018-10-07T09:48:13.427Z,989.07
2018-10-07T09:49:13.427Z,989.11
2018-10-07T09:50:13.432Z,989.07
2018-10-07T09:51:13.428Z,989.06
2018-10-07T09:52:13.493Z,989.09
2018-10-07T09:53:13.481Z,989.11
2018-10-07T09:54:13.479Z,989.11
2018-10-07T09:55:13.433Z,989.08
2018-10-07T09:56:13.441Z,989.07
2018-10-07T09:57:13.464Z,989.1
2018-10-07T09:58:13.470Z,989.06
2018-10-07T09:59:13.472Z,989.04
2018-10-07T10:00:13.459Z,989.09
2018-10-07T10:01:13.506Z,989.07
2018-10-07T10:02:13.465Z,989.08
2018-10-07T10:03:13.474Z,989.12
2018-10-07T10:04:13.561Z,989.1
2018-10-07T10:05:13.471Z,989.14
2018-10-07T10:06:13.475Z,989.17
2018-10-07T10:07:13.565Z,989.17
2018-10-07T10:08:13.467Z,989.2
2018-10-07T10:09:13.462Z,989.22
2018-10-07T10:10:13.495Z,989.22
2018-10-07T10:11:13.522Z,989.19
2018-10-07T10:12:13.479Z,989.22
2018-10-07T10:13:13.473Z,989.21
2018-10-07T10:14:13.491Z,989.21
2018-10-07T10:15:13.486Z,989.17
2018-10-07T10:16:13.497Z,989.14
2018-10-07T10:17:13.487Z,989.12
2018-10-07T10:18:13.518Z,989.09
2018-10-07T10:19:13.482Z,989.11
2018-10-07T10:20:13.480Z,989.13
2018-10-07T10:21:13.487Z,989.12
2018-10-07T10:22:13.485Z,989.11
2018-10-07T10:23:13.482Z,989.13
2018-10-07T10:24:13.509Z,989.13
2018-10-07T10:25:13.497Z,989.12
2018-10-07T10:26:13.520Z,989.09
2018-10-07T10:27:13.503Z,989.13
2018-10-07T10:28:13.512Z,989.14
2018-10-07T10:29:13.522Z,989.14
2018-10-07T10:30:13.510Z,989.09
2018-10-07T10:31:13.524Z,989.16
2018-10-07T10:32:13.511Z,989.16
2018-10-07T10:33:13.509Z,989.12
2018-10-07T10:34:13.506Z,989.11
2018-10-07T10:35:13.527Z,989.14
2018-10-07T10:36:13.531Z,989.09
2018-10-07T10:37:13.512Z,989.09
2018-10-07T10:38:13.527Z,989.09
2018-10-07T10:39:13.522Z,989.13
2018-10-07T10:40:13.531Z,989.11
2018-10-07T10:41:13.520Z,989.15
2018-10-07T10:42:13.534Z,989.12
2018-10-07T10:43:13.531Z,989.16
2018-10-07T10:44:13.533Z,989.14
2018-10-07T10:45:13.541Z,989.12
2018-10-07T10:46:13.556Z,989.13
2018-10-07T10:47:13.541Z,989.17
2018-10-07T10:48:13.578Z,989.17
2018-10-07T10:49:13.549Z,989.2
2018-10-07T10:50:13.560Z,989.16
2018-10-07T10:51:13.551Z,989.17
2018-10-07T10:52:13.552Z,989.16
2018-10-07T10:53:13.546Z,989.13
2018-10-07T10:54:13.551Z,989.11
2018-10-07T10:55:13.593Z,989.08
2018-10-07T10:56:13.556Z,989.12
2018-10-07T10:57:13.585Z,989.12
2018-10-07T10:58:13.554Z,989.1
2018-10-07T10:59:13.569Z,989.11
2018-10-07T11:00:13.569Z,989.09
2018-10-07T11:01:13.588Z,989.07
2018-10-07T11:02:13.579Z,989.04
2018-10-07T11:03:13.563Z,989.1
2018-10-07T11:04:13.582Z,989.11
2018-10-07T11:05:13.580Z,989.09
2018-10-07T11:06:13.572Z,989.06
2018-10-07T11:07:13.570Z,989.02
2018-10-07T11:08:13.586Z,989.03
2018-10-07T11:09:13.652Z,989
2018-10-07T11:10:13.586Z,988.99
2018-10-07T11:11:13.593Z,988.99
2018-10-07T11:12:13.592Z,988.94
2018-10-07T11:13:13.596Z,988.96
2018-10-07T11:14:13.594Z,988.96
2018-10-07T11:15:13.599Z,989
2018-10-07T11:16:13.601Z,988.97
2018-10-07T11:17:13.617Z,988.95
2018-10-07T11:18:13.601Z,988.93
2018-10-07T11:19:13.614Z,988.92
2018-10-07T11:20:13.605Z,988.92
2018-10-07T11:21:13.604Z,988.91
2018-10-07T11:22:13.599Z,988.93
2018-10-07T11:23:13.611Z,988.88
2018-10-07T11:24:13.613Z,988.93
2018-10-07T11:25:13.619Z,988.9
2018-10-07T11:26:13.661Z,988.93
2018-10-07T11:27:13.627Z,988.92
2018-10-07T11:28:13.641Z,988.89
2018-10-07T11:29:13.627Z,988.93
2018-10-07T11:30:13.637Z,988.9
2018-10-07T11:31:13.643Z,988.97
2018-10-07T11:32:13.635Z,988.94
2018-10-07T11:33:13.638Z,988.93
2018-10-07T11:34:13.652Z,988.95
2018-10-07T11:35:13.638Z,988.97
2018-10-07T11:36:13.640Z,988.97
2018-10-07T11:37:13.649Z,988.92
2018-10-07T11:38:13.665Z,988.93
2018-10-07T11:39:13.653Z,988.88
2018-10-07T11:40:13.662Z,988.87
2018-10-07T11:41:13.664Z,988.91
2018-10-07T11:42:13.654Z,988.9
2018-10-07T11:43:13.674Z,988.86
2018-10-07T11:44:13.666Z,988.88
2018-10-07T11:45:13.666Z,988.86
2018-10-07T11:46:13.688Z,988.86
2018-10-07T11:47:13.680Z,988.84
2018-10-07T11:48:13.666Z,988.84
2018-10-07T11:49:13.690Z,988.85
2018-10-07T11:50:13.687Z,988.85
2018-10-07T11:51:13.688Z,988.81
2018-10-07T11:52:13.705Z,988.85
2018-10-07T11:53:13.705Z,988.84
2018-10-07T11:54:13.709Z,988.87
2018-10-07T11:55:13.705Z,988.84
2018-10-07T11:56:13.706Z,988.89
2018-10-07T11:57:13.691Z,988.89
2018-10-07T11:58:13.706Z,988.87
2018-10-07T11:59:13.718Z,988.87
2018-10-07T12:00:13.726Z,988.85
2018-10-07T12:01:13.711Z,988.86
2018-10-07T12:02:13.764Z,988.89
2018-10-07T12:03:13.731Z,988.88
2018-10-07T12:04:13.774Z,988.91
2018-10-07T12:05:13.722Z,988.86
2018-10-07T12:06:13.720Z,988.84
2018-10-07T12:07:13.724Z,988.84
2018-10-07T12:08:13.744Z,988.81
2018-10-07T12:09:13.728Z,988.8
2018-10-07T12:10:13.842Z,988.79
2018-10-07T12:11:13.735Z,988.79
2018-10-07T12:12:13.748Z,988.81
2018-10-07T12:13:13.753Z,988.8
2018-10-07T12:14:13.759Z,988.77
2018-10-07T12:15:13.753Z,988.79
2018-10-07T12:16:13.763Z,988.78
2018-10-07T12:17:13.756Z,988.78
2018-10-07T12:18:13.757Z,988.8
2018-10-07T12:19:13.753Z,988.86
2018-10-07T12:20:13.786Z,988.83
2018-10-07T12:21:13.774Z,988.86
2018-10-07T12:22:13.770Z,988.86
2018-10-07T12:23:13.804Z,988.86
2018-10-07T12:24:13.769Z,988.87
2018-10-07T12:25:13.783Z,988.92
2018-10-07T12:26:13.770Z,988.91
2018-10-07T12:27:13.777Z,988.89
2018-10-07T12:28:13.783Z,988.89
2018-10-07T12:29:13.790Z,988.92
2018-10-07T12:30:13.795Z,988.9
2018-10-07T12:31:13.793Z,988.94